sensor_id;sensor_type;location;lat;lon;timestamp;P1;durP1;ratioP1;P2;durP2;ratioP2
20814;SDS011;10568;48.176;16.316;2023-07-22T00:00:53;1.53;;;1.40;;
20814;SDS011;10568;48.176;16.316;2023-07-22T00:03:18;3.23;;;1.50;;
20814;SDS011;10568;48.176;16.316;2023-07-22T00:05:44;3.93;;;1.40;;
20814;SDS011;10568;48.176;16.316;2023-07-22T00:08:17;2.33;;;1.50;;
20814;SDS011;10568;48.176;16.316;2023-07-22T00:10:42;1.90;;;1.50;;
20814;SDS011;10568;48.176;16.316;2023-07-22T00:13:08;1.73;;;1.30;;
20814;SDS011;10568;48.176;16.316;2023-07-22T00:15:34;2.13;;;1.33;;
20814;SDS011;10568;48.176;16.316;2023-07-22T00:18:00;1.93;;;1.27;;
20814;SDS011;10568;48.176;16.316;2023-07-22T00:20:25;2.27;;;1.60;;
20814;SDS011;10568;48.176;16.316;2023-07-22T00:22:52;2.10;;;1.60;;
20814;SDS011;10568;48.176;16.316;2023-07-22T00:25:17;1.90;;;1.50;;
20814;SDS011;10568;48.176;16.316;2023-07-22T00:27:43;5.17;;;1.63;;
20814;SDS011;10568;48.176;16.316;2023-07-22T00:30:09;2.00;;;1.47;;
20814;SDS011;10568;48.176;16.316;2023-07-22T00:32:36;2.37;;;1.40;;
20814;SDS011;10568;48.176;16.316;2023-07-22T00:35:06;2.73;;;1.57;;
20814;SDS011;10568;48.176;16.316;2023-07-22T00:37:32;1.73;;;1.60;;
20814;SDS011;10568;48.176;16.316;2023-07-22T00:39:58;4.60;;;1.50;;
20814;SDS011;10568;48.176;16.316;2023-07-22T00:42:24;2.57;;;1.30;;
20814;SDS011;10568;48.176;16.316;2023-07-22T00:44:50;3.27;;;1.50;;
20814;SDS011;10568;48.176;16.316;2023-07-22T00:47:16;2.90;;;1.53;;
20814;SDS011;10568;48.176;16.316;2023-07-22T00:49:42;1.97;;;1.47;;
20814;SDS011;10568;48.176;16.316;2023-07-22T00:52:09;1.97;;;1.50;;
20814;SDS011;10568;48.176;16.316;2023-07-22T00:54:35;2.43;;;1.57;;
20814;SDS011;10568;48.176;16.316;2023-07-22T00:57:00;2.33;;;1.60;;
20814;SDS011;10568;48.176;16.316;2023-07-22T00:59:26;4.10;;;1.50;;
20814;SDS011;10568;48.176;16.316;2023-07-22T01:01:53;2.20;;;1.40;;
20814;SDS011;10568;48.176;16.316;2023-07-22T01:04:19;3.00;;;1.70;;
20814;SDS011;10568;48.176;16.316;2023-07-22T01:06:47;2.60;;;1.73;;
20814;SDS011;10568;48.176;16.316;2023-07-22T01:09:14;2.13;;;1.30;;
20814;SDS011;10568;48.176;16.316;2023-07-22T01:11:40;2.23;;;1.30;;
20814;SDS011;10568;48.176;16.316;2023-07-22T01:14:06;3.10;;;1.30;;
20814;SDS011;10568;48.176;16.316;2023-07-22T01:16:33;2.47;;;1.47;;
20814;SDS011;10568;48.176;16.316;2023-07-22T01:18:59;2.63;;;1.70;;
20814;SDS011;10568;48.176;16.316;2023-07-22T01:21:25;3.10;;;1.50;;
20814;SDS011;10568;48.176;16.316;2023-07-22T01:23:55;2.53;;;1.30;;
20814;SDS011;10568;48.176;16.316;2023-07-22T01:26:22;4.90;;;1.60;;
20814;SDS011;10568;48.176;16.316;2023-07-22T01:28:48;2.00;;;1.47;;
20814;SDS011;10568;48.176;16.316;2023-07-22T01:31:14;2.20;;;1.60;;
20814;SDS011;10568;48.176;16.316;2023-07-22T01:33:39;1.90;;;1.27;;
20814;SDS011;10568;48.176;16.316;2023-07-22T01:36:05;3.60;;;1.87;;
20814;SDS011;10568;48.176;16.316;2023-07-22T01:38:32;2.70;;;1.57;;
20814;SDS011;10568;48.176;16.316;2023-07-22T01:40:59;3.17;;;1.53;;
20814;SDS011;10568;48.176;16.316;2023-07-22T01:43:25;3.10;;;1.57;;
20814;SDS011;10568;48.176;16.316;2023-07-22T01:45:51;2.27;;;1.43;;
20814;SDS011;10568;48.176;16.316;2023-07-22T01:48:18;2.40;;;1.70;;
20814;SDS011;10568;48.176;16.316;2023-07-22T01:50:44;1.67;;;1.42;;
20814;SDS011;10568;48.176;16.316;2023-07-22T01:53:10;3.60;;;1.77;;
20814;SDS011;10568;48.176;16.316;2023-07-22T01:55:35;2.45;;;1.30;;
20814;SDS011;10568;48.176;16.316;2023-07-22T01:58:01;4.50;;;1.97;;
20814;SDS011;10568;48.176;16.316;2023-07-22T02:00:27;2.53;;;1.50;;
20814;SDS011;10568;48.176;16.316;2023-07-22T02:02:53;2.70;;;1.73;;
20814;SDS011;10568;48.176;16.316;2023-07-22T02:05:19;2.57;;;1.70;;
20814;SDS011;10568;48.176;16.316;2023-07-22T02:07:46;2.37;;;1.70;;
20814;SDS011;10568;48.176;16.316;2023-07-22T02:10:11;2.17;;;1.70;;
20814;SDS011;10568;48.176;16.316;2023-07-22T02:12:38;2.30;;;1.60;;
20814;SDS011;10568;48.176;16.316;2023-07-22T02:15:07;2.00;;;1.60;;
20814;SDS011;10568;48.176;16.316;2023-07-22T02:17:33;2.87;;;1.60;;
20814;SDS011;10568;48.176;16.316;2023-07-22T02:19:59;2.97;;;1.60;;
20814;SDS011;10568;48.176;16.316;2023-07-22T02:22:24;2.37;;;1.70;;
20814;SDS011;10568;48.176;16.316;2023-07-22T02:24:51;2.90;;;1.80;;
20814;SDS011;10568;48.176;16.316;2023-07-22T02:27:17;2.20;;;1.70;;
20814;SDS011;10568;48.176;16.316;2023-07-22T02:29:42;3.07;;;1.80;;
20814;SDS011;10568;48.176;16.316;2023-07-22T02:32:08;3.20;;;1.60;;
20814;SDS011;10568;48.176;16.316;2023-07-22T02:34:34;2.63;;;1.70;;
20814;SDS011;10568;48.176;16.316;2023-07-22T02:36:59;3.27;;;1.97;;
20814;SDS011;10568;48.176;16.316;2023-07-22T02:39:25;1.90;;;1.43;;
20814;SDS011;10568;48.176;16.316;2023-07-22T02:41:51;2.70;;;1.87;;
20814;SDS011;10568;48.176;16.316;2023-07-22T02:44:17;2.40;;;1.73;;
20814;SDS011;10568;48.176;16.316;2023-07-22T02:46:42;2.63;;;1.70;;
20814;SDS011;10568;48.176;16.316;2023-07-22T02:49:08;2.60;;;1.67;;
20814;SDS011;10568;48.176;16.316;2023-07-22T02:51:35;3.77;;;1.50;;
20814;SDS011;10568;48.176;16.316;2023-07-22T02:54:00;2.07;;;1.80;;
20814;SDS011;10568;48.176;16.316;2023-07-22T02:56:26;2.30;;;1.80;;
20814;SDS011;10568;48.176;16.316;2023-07-22T02:58:52;4.32;;;1.80;;
20814;SDS011;10568;48.176;16.316;2023-07-22T03:01:18;2.00;;;1.80;;
20814;SDS011;10568;48.176;16.316;2023-07-22T03:03:44;3.83;;;2.10;;
20814;SDS011;10568;48.176;16.316;2023-07-22T03:06:09;2.30;;;1.73;;
20814;SDS011;10568;48.176;16.316;2023-07-22T03:08:35;3.53;;;1.50;;
20814;SDS011;10568;48.176;16.316;2023-07-22T03:11:01;2.57;;;1.70;;
20814;SDS011;10568;48.176;16.316;2023-07-22T03:13:29;5.47;;;1.80;;
20814;SDS011;10568;48.176;16.316;2023-07-22T03:15:55;3.70;;;2.00;;
20814;SDS011;10568;48.176;16.316;2023-07-22T03:18:21;3.33;;;1.80;;
20814;SDS011;10568;48.176;16.316;2023-07-22T03:20:48;3.00;;;1.60;;
20814;SDS011;10568;48.176;16.316;2023-07-22T03:23:14;2.07;;;1.47;;
20814;SDS011;10568;48.176;16.316;2023-07-22T03:25:39;2.70;;;1.57;;
20814;SDS011;10568;48.176;16.316;2023-07-22T03:28:06;1.93;;;1.50;;
20814;SDS011;10568;48.176;16.316;2023-07-22T03:30:32;2.80;;;1.60;;
20814;SDS011;10568;48.176;16.316;2023-07-22T03:32:59;2.10;;;1.80;;
20814;SDS011;10568;48.176;16.316;2023-07-22T03:35:25;1.40;;;1.30;;
20814;SDS011;10568;48.176;16.316;2023-07-22T03:37:52;1.83;;;1.40;;
20814;SDS011;10568;48.176;16.316;2023-07-22T03:40:18;2.33;;;1.63;;
20814;SDS011;10568;48.176;16.316;2023-07-22T03:42:50;1.87;;;1.53;;
20814;SDS011;10568;48.176;16.316;2023-07-22T03:45:17;2.80;;;1.80;;
20814;SDS011;10568;48.176;16.316;2023-07-22T03:47:44;4.40;;;1.87;;
20814;SDS011;10568;48.176;16.316;2023-07-22T03:50:11;3.87;;;1.60;;
20814;SDS011;10568;48.176;16.316;2023-07-22T03:52:37;3.17;;;1.90;;
20814;SDS011;10568;48.176;16.316;2023-07-22T03:55:03;3.03;;;1.80;;
20814;SDS011;10568;48.176;16.316;2023-07-22T03:57:31;2.13;;;1.48;;
20814;SDS011;10568;48.176;16.316;2023-07-22T03:59:57;2.10;;;1.70;;
20814;SDS011;10568;48.176;16.316;2023-07-22T04:02:23;2.17;;;1.50;;
20814;SDS011;10568;48.176;16.316;2023-07-22T04:04:55;2.03;;;1.40;;
20814;SDS011;10568;48.176;16.316;2023-07-22T04:07:21;2.53;;;1.53;;
20814;SDS011;10568;48.176;16.316;2023-07-22T04:09:48;1.60;;;1.10;;
20814;SDS011;10568;48.176;16.316;2023-07-22T04:12:14;2.60;;;1.50;;
20814;SDS011;10568;48.176;16.316;2023-07-22T04:14:40;2.17;;;1.73;;
20814;SDS011;10568;48.176;16.316;2023-07-22T04:17:06;2.37;;;1.60;;
20814;SDS011;10568;48.176;16.316;2023-07-22T04:19:32;1.83;;;1.40;;
20814;SDS011;10568;48.176;16.316;2023-07-22T04:21:58;2.53;;;1.57;;
20814;SDS011;10568;48.176;16.316;2023-07-22T04:24:25;1.70;;;1.20;;
20814;SDS011;10568;48.176;16.316;2023-07-22T04:26:51;1.53;;;1.30;;
20814;SDS011;10568;48.176;16.316;2023-07-22T04:29:17;2.63;;;1.40;;
20814;SDS011;10568;48.176;16.316;2023-07-22T04:31:42;1.97;;;1.33;;
20814;SDS011;10568;48.176;16.316;2023-07-22T04:34:08;1.90;;;1.43;;
20814;SDS011;10568;48.176;16.316;2023-07-22T04:36:36;2.83;;;1.70;;
20814;SDS011;10568;48.176;16.316;2023-07-22T04:39:02;2.40;;;1.30;;
20814;SDS011;10568;48.176;16.316;2023-07-22T04:41:31;2.40;;;1.40;;
20814;SDS011;10568;48.176;16.316;2023-07-22T04:43:57;2.20;;;1.33;;
20814;SDS011;10568;48.176;16.316;2023-07-22T04:46:26;2.47;;;1.40;;
20814;SDS011;10568;48.176;16.316;2023-07-22T04:48:55;2.13;;;1.37;;
20814;SDS011;10568;48.176;16.316;2023-07-22T04:51:23;2.10;;;1.50;;
20814;SDS011;10568;48.176;16.316;2023-07-22T04:53:49;2.23;;;1.40;;
20814;SDS011;10568;48.176;16.316;2023-07-22T04:56:14;2.53;;;1.53;;
20814;SDS011;10568;48.176;16.316;2023-07-22T04:58:41;2.00;;;1.30;;
20814;SDS011;10568;48.176;16.316;2023-07-22T05:01:07;2.37;;;1.57;;
20814;SDS011;10568;48.176;16.316;2023-07-22T05:03:34;2.50;;;1.40;;
20814;SDS011;10568;48.176;16.316;2023-07-22T05:06:00;2.10;;;1.30;;
20814;SDS011;10568;48.176;16.316;2023-07-22T05:08:27;3.60;;;1.30;;
20814;SDS011;10568;48.176;16.316;2023-07-22T05:10:52;2.27;;;1.50;;
20814;SDS011;10568;48.176;16.316;2023-07-22T05:13:18;2.80;;;1.70;;
20814;SDS011;10568;48.176;16.316;2023-07-22T05:15:44;2.13;;;1.20;;
20814;SDS011;10568;48.176;16.316;2023-07-22T05:18:10;3.90;;;1.40;;
20814;SDS011;10568;48.176;16.316;2023-07-22T05:20:37;3.17;;;1.70;;
20814;SDS011;10568;48.176;16.316;2023-07-22T05:23:03;3.37;;;1.43;;
20814;SDS011;10568;48.176;16.316;2023-07-22T05:25:29;2.00;;;1.30;;
20814;SDS011;10568;48.176;16.316;2023-07-22T05:27:55;2.00;;;1.43;;
20814;SDS011;10568;48.176;16.316;2023-07-22T05:30:20;2.87;;;1.53;;
20814;SDS011;10568;48.176;16.316;2023-07-22T05:32:46;2.10;;;1.53;;
20814;SDS011;10568;48.176;16.316;2023-07-22T05:35:12;3.67;;;1.37;;
20814;SDS011;10568;48.176;16.316;2023-07-22T05:37:38;1.92;;;1.23;;
20814;SDS011;10568;48.176;16.316;2023-07-22T05:40:04;2.40;;;1.73;;
20814;SDS011;10568;48.176;16.316;2023-07-22T05:42:32;2.13;;;1.50;;
20814;SDS011;10568;48.176;16.316;2023-07-22T05:44:58;1.93;;;1.30;;
20814;SDS011;10568;48.176;16.316;2023-07-22T05:47:25;3.97;;;1.30;;
20814;SDS011;10568;48.176;16.316;2023-07-22T05:49:51;3.17;;;1.80;;
20814;SDS011;10568;48.176;16.316;2023-07-22T05:52:16;2.63;;;1.70;;
20814;SDS011;10568;48.176;16.316;2023-07-22T05:54:42;2.27;;;1.50;;
20814;SDS011;10568;48.176;16.316;2023-07-22T05:57:08;3.20;;;1.53;;
20814;SDS011;10568;48.176;16.316;2023-07-22T05:59:33;3.30;;;1.75;;
20814;SDS011;10568;48.176;16.316;2023-07-22T06:02:01;2.38;;;1.67;;
20814;SDS011;10568;48.176;16.316;2023-07-22T06:04:28;1.85;;;1.27;;
20814;SDS011;10568;48.176;16.316;2023-07-22T06:06:54;2.87;;;1.57;;
20814;SDS011;10568;48.176;16.316;2023-07-22T06:09:19;3.37;;;1.73;;
20814;SDS011;10568;48.176;16.316;2023-07-22T06:11:46;2.30;;;1.70;;
20814;SDS011;10568;48.176;16.316;2023-07-22T06:14:12;1.73;;;1.50;;
20814;SDS011;10568;48.176;16.316;2023-07-22T06:16:38;3.00;;;1.77;;
20814;SDS011;10568;48.176;16.316;2023-07-22T06:19:03;1.40;;;1.10;;
20814;SDS011;10568;48.176;16.316;2023-07-22T06:21:29;2.38;;;1.60;;
20814;SDS011;10568;48.176;16.316;2023-07-22T06:23:55;1.75;;;1.40;;
20814;SDS011;10568;48.176;16.316;2023-07-22T06:26:21;2.53;;;1.50;;
20814;SDS011;10568;48.176;16.316;2023-07-22T06:28:47;2.38;;;1.10;;
20814;SDS011;10568;48.176;16.316;2023-07-22T06:31:13;2.40;;;1.42;;
20814;SDS011;10568;48.176;16.316;2023-07-22T06:33:38;2.03;;;1.35;;
20814;SDS011;10568;48.176;16.316;2023-07-22T06:36:04;3.60;;;1.10;;
20814;SDS011;10568;48.176;16.316;2023-07-22T06:38:30;4.28;;;1.30;;
20814;SDS011;10568;48.176;16.316;2023-07-22T06:40:56;2.45;;;1.10;;
20814;SDS011;10568;48.176;16.316;2023-07-22T06:43:22;2.03;;;1.30;;
20814;SDS011;10568;48.176;16.316;2023-07-22T06:45:48;2.70;;;1.48;;
20814;SDS011;10568;48.176;16.316;2023-07-22T06:48:14;4.15;;;1.20;;
20814;SDS011;10568;48.176;16.316;2023-07-22T06:50:39;1.38;;;1.25;;
20814;SDS011;10568;48.176;16.316;2023-07-22T06:53:11;4.32;;;1.30;;
20814;SDS011;10568;48.176;16.316;2023-07-22T06:55:40;3.00;;;1.52;;
20814;SDS011;10568;48.176;16.316;2023-07-22T06:58:13;1.83;;;1.17;;
20814;SDS011;10568;48.176;16.316;2023-07-22T07:00:38;2.08;;;1.45;;
20814;SDS011;10568;48.176;16.316;2023-07-22T07:03:04;1.38;;;1.00;;
20814;SDS011;10568;48.176;16.316;2023-07-22T07:05:30;1.60;;;1.20;;
20814;SDS011;10568;48.176;16.316;2023-07-22T07:07:55;1.85;;;1.42;;
20814;SDS011;10568;48.176;16.316;2023-07-22T07:10:21;2.17;;;1.40;;
20814;SDS011;10568;48.176;16.316;2023-07-22T07:12:47;1.83;;;1.30;;
20814;SDS011;10568;48.176;16.316;2023-07-22T07:15:12;2.17;;;1.27;;
20814;SDS011;10568;48.176;16.316;2023-07-22T07:17:38;1.67;;;1.00;;
20814;SDS011;10568;48.176;16.316;2023-07-22T07:20:04;2.15;;;1.40;;
20814;SDS011;10568;48.176;16.316;2023-07-22T07:22:30;2.17;;;1.20;;
20814;SDS011;10568;48.176;16.316;2023-07-22T07:24:56;2.53;;;1.40;;
20814;SDS011;10568;48.176;16.316;2023-07-22T07:27:22;2.40;;;1.30;;
20814;SDS011;10568;48.176;16.316;2023-07-22T07:29:48;2.13;;;1.10;;
20814;SDS011;10568;48.176;16.316;2023-07-22T07:32:13;1.67;;;1.20;;
20814;SDS011;10568;48.176;16.316;2023-07-22T07:34:39;1.58;;;1.10;;
20814;SDS011;10568;48.176;16.316;2023-07-22T07:37:05;1.20;;;0.93;;
20814;SDS011;10568;48.176;16.316;2023-07-22T07:39:31;1.77;;;1.00;;
20814;SDS011;10568;48.176;16.316;2023-07-22T07:41:56;1.48;;;1.08;;
20814;SDS011;10568;48.176;16.316;2023-07-22T07:44:22;1.35;;;1.00;;
20814;SDS011;10568;48.176;16.316;2023-07-22T07:46:48;1.60;;;1.10;;
20814;SDS011;10568;48.176;16.316;2023-07-22T07:49:13;2.13;;;1.02;;
20814;SDS011;10568;48.176;16.316;2023-07-22T07:51:40;2.15;;;0.95;;
20814;SDS011;10568;48.176;16.316;2023-07-22T07:54:07;1.20;;;1.10;;
20814;SDS011;10568;48.176;16.316;2023-07-22T07:56:33;1.73;;;1.10;;
20814;SDS011;10568;48.176;16.316;2023-07-22T07:58:59;1.45;;;1.00;;
20814;SDS011;10568;48.176;16.316;2023-07-22T08:01:24;0.90;;;0.73;;
20814;SDS011;10568;48.176;16.316;2023-07-22T08:03:50;2.08;;;1.00;;
20814;SDS011;10568;48.176;16.316;2023-07-22T08:06:16;2.95;;;1.15;;
20814;SDS011;10568;48.176;16.316;2023-07-22T08:08:42;2.40;;;1.30;;
20814;SDS011;10568;48.176;16.316;2023-07-22T08:11:09;2.05;;;1.20;;
20814;SDS011;10568;48.176;16.316;2023-07-22T08:13:38;3.22;;;1.25;;
20814;SDS011;10568;48.176;16.316;2023-07-22T08:16:05;3.13;;;1.15;;
20814;SDS011;10568;48.176;16.316;2023-07-22T08:18:32;1.33;;;1.20;;
20814;SDS011;10568;48.176;16.316;2023-07-22T08:20:59;2.03;;;1.30;;
20814;SDS011;10568;48.176;16.316;2023-07-22T08:23:25;1.45;;;1.05;;
20814;SDS011;10568;48.176;16.316;2023-07-22T08:25:51;1.25;;;1.08;;
20814;SDS011;10568;48.176;16.316;2023-07-22T08:28:17;2.35;;;1.15;;
20814;SDS011;10568;48.176;16.316;2023-07-22T08:30:43;1.55;;;0.93;;
20814;SDS011;10568;48.176;16.316;2023-07-22T08:33:10;1.73;;;1.20;;
20814;SDS011;10568;48.176;16.316;2023-07-22T08:35:39;2.28;;;1.10;;
20814;SDS011;10568;48.176;16.316;2023-07-22T08:38:05;1.70;;;1.10;;
20814;SDS011;10568;48.176;16.316;2023-07-22T08:40:37;1.50;;;1.10;;
20814;SDS011;10568;48.176;16.316;2023-07-22T08:43:06;1.60;;;1.20;;
20814;SDS011;10568;48.176;16.316;2023-07-22T08:45:33;2.30;;;1.20;;
20814;SDS011;10568;48.176;16.316;2023-07-22T08:48:04;1.60;;;1.05;;
20814;SDS011;10568;48.176;16.316;2023-07-22T08:50:44;1.60;;;1.20;;
20814;SDS011;10568;48.176;16.316;2023-07-22T08:53:11;1.98;;;1.25;;
20814;SDS011;10568;48.176;16.316;2023-07-22T08:55:37;1.00;;;0.90;;
20814;SDS011;10568;48.176;16.316;2023-07-22T08:58:10;2.63;;;1.10;;
20814;SDS011;10568;48.176;16.316;2023-07-22T09:00:38;1.63;;;1.27;;
20814;SDS011;10568;48.176;16.316;2023-07-22T09:03:06;1.67;;;1.02;;
20814;SDS011;10568;48.176;16.316;2023-07-22T09:05:32;1.38;;;1.00;;
20814;SDS011;10568;48.176;16.316;2023-07-22T09:08:01;2.25;;;1.00;;
20814;SDS011;10568;48.176;16.316;2023-07-22T09:10:28;2.08;;;1.00;;
20814;SDS011;10568;48.176;16.316;2023-07-22T09:12:55;1.30;;;1.00;;
20814;SDS011;10568;48.176;16.316;2023-07-22T09:15:21;2.63;;;1.20;;
20814;SDS011;10568;48.176;16.316;2023-07-22T09:17:48;0.98;;;0.90;;
20814;SDS011;10568;48.176;16.316;2023-07-22T09:20:15;3.58;;;1.17;;
20814;SDS011;10568;48.176;16.316;2023-07-22T09:22:45;2.03;;;0.93;;
20814;SDS011;10568;48.176;16.316;2023-07-22T09:25:20;1.00;;;0.90;;
20814;SDS011;10568;48.176;16.316;2023-07-22T09:27:48;1.80;;;1.20;;
20814;SDS011;10568;48.176;16.316;2023-07-22T09:30:33;2.03;;;0.98;;
20814;SDS011;10568;48.176;16.316;2023-07-22T09:33:04;2.65;;;0.85;;
20814;SDS011;10568;48.176;16.316;2023-07-22T09:35:45;2.13;;;1.38;;
20814;SDS011;10568;48.176;16.316;2023-07-22T09:38:18;3.00;;;1.20;;
20814;SDS011;10568;48.176;16.316;2023-07-22T09:40:48;1.73;;;0.90;;
20814;SDS011;10568;48.176;16.316;2023-07-22T09:43:14;1.60;;;1.15;;
20814;SDS011;10568;48.176;16.316;2023-07-22T09:45:39;1.75;;;1.08;;
20814;SDS011;10568;48.176;16.316;2023-07-22T09:48:05;2.78;;;1.08;;
20814;SDS011;10568;48.176;16.316;2023-07-22T09:50:33;3.08;;;1.30;;
20814;SDS011;10568;48.176;16.316;2023-07-22T09:53:02;3.42;;;1.10;;
20814;SDS011;10568;48.176;16.316;2023-07-22T09:55:29;1.58;;;1.10;;
20814;SDS011;10568;48.176;16.316;2023-07-22T09:57:57;1.50;;;1.00;;
20814;SDS011;10568;48.176;16.316;2023-07-22T10:00:32;1.63;;;1.20;;
20814;SDS011;10568;48.176;16.316;2023-07-22T10:02:59;1.60;;;1.10;;
20814;SDS011;10568;48.176;16.316;2023-07-22T10:05:27;1.40;;;1.00;;
20814;SDS011;10568;48.176;16.316;2023-07-22T10:07:55;1.92;;;1.00;;
20814;SDS011;10568;48.176;16.316;2023-07-22T10:10:25;1.92;;;1.30;;
20814;SDS011;10568;48.176;16.316;2023-07-22T10:12:55;1.55;;;1.25;;
20814;SDS011;10568;48.176;16.316;2023-07-22T10:15:22;1.70;;;1.08;;
20814;SDS011;10568;48.176;16.316;2023-07-22T10:17:51;1.50;;;1.10;;
20814;SDS011;10568;48.176;16.316;2023-07-22T10:20:19;2.63;;;0.80;;
20814;SDS011;10568;48.176;16.316;2023-07-22T10:22:46;1.50;;;1.00;;
20814;SDS011;10568;48.176;16.316;2023-07-22T10:25:14;1.63;;;1.08;;
20814;SDS011;10568;48.176;16.316;2023-07-22T10:27:45;1.55;;;1.10;;
20814;SDS011;10568;48.176;16.316;2023-07-22T10:30:15;2.17;;;0.80;;
20814;SDS011;10568;48.176;16.316;2023-07-22T10:32:42;1.55;;;1.10;;
20814;SDS011;10568;48.176;16.316;2023-07-22T10:35:17;1.55;;;1.08;;
20814;SDS011;10568;48.176;16.316;2023-07-22T10:37:56;1.80;;;0.77;;
20814;SDS011;10568;48.176;16.316;2023-07-22T10:43:11;1.38;;;0.90;;
20814;SDS011;10568;48.176;16.316;2023-07-22T10:45:41;1.35;;;0.95;;
20814;SDS011;10568;48.176;16.316;2023-07-22T10:48:09;2.22;;;1.23;;
20814;SDS011;10568;48.176;16.316;2023-07-22T10:50:44;1.35;;;1.00;;
20814;SDS011;10568;48.176;16.316;2023-07-22T10:53:20;1.63;;;0.90;;
20814;SDS011;10568;48.176;16.316;2023-07-22T11:06:33;1.27;;;0.95;;
20814;SDS011;10568;48.176;16.316;2023-07-22T11:09:00;1.45;;;1.10;;
20814;SDS011;10568;48.176;16.316;2023-07-22T11:11:39;1.00;;;0.85;;
20814;SDS011;10568;48.176;16.316;2023-07-22T11:14:20;3.58;;;1.02;;
20814;SDS011;10568;48.176;16.316;2023-07-22T11:16:47;1.60;;;1.10;;
20814;SDS011;10568;48.176;16.316;2023-07-22T11:19:17;2.00;;;1.20;;
20814;SDS011;10568;48.176;16.316;2023-07-22T11:21:44;1.75;;;1.20;;
20814;SDS011;10568;48.176;16.316;2023-07-22T11:24:11;1.75;;;1.20;;
20814;SDS011;10568;48.176;16.316;2023-07-22T11:26:37;1.65;;;1.27;;
20814;SDS011;10568;48.176;16.316;2023-07-22T11:29:04;1.58;;;1.00;;
20814;SDS011;10568;48.176;16.316;2023-07-22T11:31:34;1.45;;;0.88;;
20814;SDS011;10568;48.176;16.316;2023-07-22T11:34:08;1.40;;;1.10;;
20814;SDS011;10568;48.176;16.316;2023-07-22T11:36:34;3.58;;;1.20;;
20814;SDS011;10568;48.176;16.316;2023-07-22T11:39:06;1.38;;;1.10;;
20814;SDS011;10568;48.176;16.316;2023-07-22T11:41:32;1.20;;;0.95;;
20814;SDS011;10568;48.176;16.316;2023-07-22T11:43:59;1.40;;;0.85;;
20814;SDS011;10568;48.176;16.316;2023-07-22T11:46:27;1.52;;;1.00;;
20814;SDS011;10568;48.176;16.316;2023-07-22T11:48:53;2.10;;;1.13;;
20814;SDS011;10568;48.176;16.316;2023-07-22T11:51:21;1.30;;;1.08;;
20814;SDS011;10568;48.176;16.316;2023-07-22T11:53:49;2.05;;;0.95;;
20814;SDS011;10568;48.176;16.316;2023-07-22T11:56:22;1.95;;;1.20;;
20814;SDS011;10568;48.176;16.316;2023-07-22T11:58:50;1.23;;;1.02;;
20814;SDS011;10568;48.176;16.316;2023-07-22T12:01:17;1.42;;;0.93;;
20814;SDS011;10568;48.176;16.316;2023-07-22T12:03:47;1.15;;;1.00;;
20814;SDS011;10568;48.176;16.316;2023-07-22T12:06:14;1.55;;;1.10;;
20814;SDS011;10568;48.176;16.316;2023-07-22T12:08:48;0.88;;;0.88;;
20814;SDS011;10568;48.176;16.316;2023-07-22T12:11:21;1.02;;;0.90;;
20814;SDS011;10568;48.176;16.316;2023-07-22T12:13:49;2.30;;;1.10;;
20814;SDS011;10568;48.176;16.316;2023-07-22T12:16:30;1.67;;;1.02;;
20814;SDS011;10568;48.176;16.316;2023-07-22T12:18:56;1.02;;;0.77;;
20814;SDS011;10568;48.176;16.316;2023-07-22T12:21:21;1.55;;;1.10;;
20814;SDS011;10568;48.176;16.316;2023-07-22T12:23:47;1.35;;;0.93;;
20814;SDS011;10568;48.176;16.316;2023-07-22T12:26:13;1.52;;;1.20;;
20814;SDS011;10568;48.176;16.316;2023-07-22T12:28:39;1.35;;;1.02;;
20814;SDS011;10568;48.176;16.316;2023-07-22T12:31:04;1.50;;;0.93;;
20814;SDS011;10568;48.176;16.316;2023-07-22T12:33:30;1.30;;;1.00;;
20814;SDS011;10568;48.176;16.316;2023-07-22T12:35:56;2.17;;;1.17;;
20814;SDS011;10568;48.176;16.316;2023-07-22T12:38:22;1.83;;;1.10;;
20814;SDS011;10568;48.176;16.316;2023-07-22T12:40:49;1.30;;;0.90;;
20814;SDS011;10568;48.176;16.316;2023-07-22T12:43:14;1.50;;;0.90;;
20814;SDS011;10568;48.176;16.316;2023-07-22T12:45:40;2.63;;;1.02;;
20814;SDS011;10568;48.176;16.316;2023-07-22T12:48:06;1.73;;;1.10;;
20814;SDS011;10568;48.176;16.316;2023-07-22T12:50:32;1.33;;;1.10;;
20814;SDS011;10568;48.176;16.316;2023-07-22T12:52:58;1.38;;;0.90;;
20814;SDS011;10568;48.176;16.316;2023-07-22T12:55:24;1.48;;;1.00;;
20814;SDS011;10568;48.176;16.316;2023-07-22T12:57:51;1.35;;;0.80;;
20814;SDS011;10568;48.176;16.316;2023-07-22T13:00:17;1.42;;;0.98;;
20814;SDS011;10568;48.176;16.316;2023-07-22T13:02:43;1.00;;;0.70;;
20814;SDS011;10568;48.176;16.316;2023-07-22T13:05:08;1.58;;;1.00;;
20814;SDS011;10568;48.176;16.316;2023-07-22T13:07:34;2.00;;;1.00;;
20814;SDS011;10568;48.176;16.316;2023-07-22T13:10:03;1.60;;;1.10;;
20814;SDS011;10568;48.176;16.316;2023-07-22T13:12:33;1.80;;;1.08;;
20814;SDS011;10568;48.176;16.316;2023-07-22T13:14:59;1.20;;;0.95;;
20814;SDS011;10568;48.176;16.316;2023-07-22T13:17:25;3.13;;;1.20;;
20814;SDS011;10568;48.176;16.316;2023-07-22T13:19:51;1.65;;;0.93;;
20814;SDS011;10568;48.176;16.316;2023-07-22T13:22:17;1.40;;;1.00;;
20814;SDS011;10568;48.176;16.316;2023-07-22T13:24:43;1.30;;;0.98;;
20814;SDS011;10568;48.176;16.316;2023-07-22T13:27:08;1.75;;;1.02;;
20814;SDS011;10568;48.176;16.316;2023-07-22T13:29:34;1.80;;;1.10;;
20814;SDS011;10568;48.176;16.316;2023-07-22T13:32:00;1.38;;;1.00;;
20814;SDS011;10568;48.176;16.316;2023-07-22T13:34:26;1.80;;;1.00;;
20814;SDS011;10568;48.176;16.316;2023-07-22T13:36:51;1.35;;;1.00;;
20814;SDS011;10568;48.176;16.316;2023-07-22T13:39:17;2.88;;;0.95;;
20814;SDS011;10568;48.176;16.316;2023-07-22T13:41:43;2.05;;;0.88;;
20814;SDS011;10568;48.176;16.316;2023-07-22T13:44:09;1.42;;;1.00;;
20814;SDS011;10568;48.176;16.316;2023-07-22T13:46:34;1.67;;;1.10;;
20814;SDS011;10568;48.176;16.316;2023-07-22T13:49:00;1.50;;;1.27;;
20814;SDS011;10568;48.176;16.316;2023-07-22T13:51:26;2.00;;;1.40;;
20814;SDS011;10568;48.176;16.316;2023-07-22T13:53:51;0.90;;;0.80;;
20814;SDS011;10568;48.176;16.316;2023-07-22T13:56:19;1.20;;;1.00;;
20814;SDS011;10568;48.176;16.316;2023-07-22T13:58:45;2.00;;;1.00;;
20814;SDS011;10568;48.176;16.316;2023-07-22T14:01:11;1.23;;;1.00;;
20814;SDS011;10568;48.176;16.316;2023-07-22T14:03:38;1.33;;;1.00;;
20814;SDS011;10568;48.176;16.316;2023-07-22T14:06:04;1.25;;;1.05;;
20814;SDS011;10568;48.176;16.316;2023-07-22T14:08:30;1.75;;;1.30;;
20814;SDS011;10568;48.176;16.316;2023-07-22T14:10:55;1.27;;;0.90;;
20814;SDS011;10568;48.176;16.316;2023-07-22T14:13:21;1.58;;;1.00;;
20814;SDS011;10568;48.176;16.316;2023-07-22T14:15:47;1.33;;;0.90;;
20814;SDS011;10568;48.176;16.316;2023-07-22T14:18:13;1.98;;;1.17;;
20814;SDS011;10568;48.176;16.316;2023-07-22T14:20:42;1.70;;;1.10;;
20814;SDS011;10568;48.176;16.316;2023-07-22T14:23:09;1.52;;;1.00;;
20814;SDS011;10568;48.176;16.316;2023-07-22T14:25:34;2.42;;;1.10;;
20814;SDS011;10568;48.176;16.316;2023-07-22T14:28:00;1.25;;;1.00;;
20814;SDS011;10568;48.176;16.316;2023-07-22T14:30:26;1.85;;;1.20;;
20814;SDS011;10568;48.176;16.316;2023-07-22T14:32:52;1.30;;;0.95;;
20814;SDS011;10568;48.176;16.316;2023-07-22T14:35:18;0.95;;;0.80;;
20814;SDS011;10568;48.176;16.316;2023-07-22T14:37:43;1.55;;;1.10;;
20814;SDS011;10568;48.176;16.316;2023-07-22T14:40:11;1.90;;;1.20;;
20814;SDS011;10568;48.176;16.316;2023-07-22T14:42:37;2.70;;;1.40;;
20814;SDS011;10568;48.176;16.316;2023-07-22T14:45:03;1.35;;;1.10;;